createdAt,value
2022-09-01T00:00:27.825Z,100.00
2022-09-01T00:02:56.006Z,100.00
2022-09-01T00:05:22.748Z,100.00
2022-09-01T00:07:49.398Z,100.00
2022-09-01T00:10:16.264Z,100.00
2022-09-01T00:12:42.911Z,100.00
2022-09-01T00:15:10.067Z,100.00
2022-09-01T00:17:36.787Z,100.00
2022-09-01T00:20:04.438Z,100.00
2022-09-01T00:22:31.303Z,100.00
2022-09-01T00:24:57.931Z,100.00
2022-09-01T00:27:30.556Z,100.00
2022-09-01T00:29:58.014Z,100.00
2022-09-01T00:32:24.988Z,100.00
2022-09-01T00:34:51.790Z,100.00
2022-09-01T00:37:18.512Z,100.00
2022-09-01T00:39:45.168Z,100.00
2022-09-01T00:42:11.798Z,100.00
2022-09-01T00:44:39.350Z,100.00
2022-09-01T00:47:06.312Z,100.00
2022-09-01T00:49:40.913Z,100.00
2022-09-01T00:52:29.957Z,100.00
2022-09-01T00:54:58.297Z,100.00
2022-09-01T00:57:25.105Z,100.00
2022-09-01T00:59:57.655Z,100.00
2022-09-01T01:02:24.807Z,100.00
2022-09-01T01:04:51.528Z,100.00
2022-09-01T01:07:19.187Z,100.00
2022-09-01T01:09:45.928Z,100.00
2022-09-01T01:12:12.783Z,100.00
2022-09-01T01:14:39.705Z,100.00
2022-09-01T01:17:06.524Z,100.00
2022-09-01T01:19:40.796Z,100.00
2022-09-01T01:22:10.298Z,100.00
2022-09-01T01:24:36.922Z,100.00
2022-09-01T01:27:03.827Z,100.00
2022-09-01T01:29:35.222Z,100.00
2022-09-01T01:32:01.994Z,100.00
2022-09-01T01:34:28.609Z,100.00
2022-09-01T01:36:55.216Z,100.00
2022-09-01T01:39:23.799Z,100.00
2022-09-01T01:41:50.480Z,100.00
2022-09-01T01:44:21.578Z,100.00
2022-09-01T01:46:50.638Z,100.00
2022-09-01T01:49:19.443Z,100.00
2022-09-01T01:51:47.079Z,100.00
2022-09-01T01:54:14.481Z,100.00
2022-09-01T01:56:41.285Z,100.00
2022-09-01T01:59:08.445Z,100.00
2022-09-01T02:01:35.419Z,100.00
2022-09-01T02:04:02.331Z,100.00
2022-09-01T02:06:29.249Z,100.00
2022-09-01T02:08:56.761Z,100.00
2022-09-01T02:11:24.662Z,100.00
2022-09-01T02:13:51.546Z,100.00
2022-09-01T02:16:18.190Z,100.00
2022-09-01T02:18:45.700Z,100.00
2022-09-01T02:21:17.630Z,100.00
2022-09-01T02:23:46.085Z,100.00
2022-09-01T02:26:17.242Z,100.00
2022-09-01T02:28:45.606Z,100.00
2022-09-01T02:31:12.412Z,100.00
2022-09-01T02:33:39.871Z,100.00
2022-09-01T02:36:08.980Z,100.00
2022-09-01T02:38:35.907Z,100.00
2022-09-01T02:41:05.957Z,100.00
2022-09-01T02:43:32.764Z,100.00
2022-09-01T02:46:01.181Z,100.00
2022-09-01T02:48:33.128Z,100.00
2022-09-01T02:51:00.372Z,100.00
2022-09-01T02:53:26.994Z,100.00
2022-09-01T02:55:53.668Z,100.00
2022-09-01T02:58:20.454Z,100.00
2022-09-01T03:00:55.913Z,100.00
2022-09-01T03:03:22.843Z,100.00
2022-09-01T03:05:51.354Z,100.00
2022-09-01T03:08:18.186Z,100.00
2022-09-01T03:10:45.160Z,100.00
2022-09-01T03:13:14.166Z,100.00
2022-09-01T03:15:40.819Z,100.00
2022-09-01T03:18:08.444Z,100.00
2022-09-01T03:20:36.475Z,100.00
2022-09-01T03:23:04.363Z,100.00
2022-09-01T03:25:31.806Z,100.00
2022-09-01T03:27:58.460Z,100.00
2022-09-01T03:30:25.384Z,100.00
2022-09-01T03:32:52.233Z,100.00
2022-09-01T03:35:18.956Z,100.00
2022-09-01T03:37:45.743Z,100.00
2022-09-01T03:40:12.893Z,100.00
2022-09-01T03:42:40.026Z,100.00
2022-09-01T03:45:07.492Z,100.00
2022-09-01T03:47:34.173Z,100.00
2022-09-01T03:50:00.826Z,100.00
2022-09-01T03:52:27.457Z,100.00
2022-09-01T03:54:54.202Z,100.00
2022-09-01T03:57:20.855Z,100.00
2022-09-01T03:59:47.448Z,100.00
2022-09-01T04:02:15.000Z,100.00
2022-09-01T04:04:41.681Z,100.00
2022-09-01T04:07:08.393Z,100.00
2022-09-01T04:09:35.122Z,100.00
2022-09-01T04:12:03.528Z,100.00
2022-09-01T04:14:31.388Z,100.00
2022-09-01T04:16:58.197Z,100.00
2022-09-01T04:19:25.984Z,100.00
2022-09-01T04:21:54.243Z,100.00
2022-09-01T04:24:21.966Z,100.00
2022-09-01T04:26:48.860Z,100.00
2022-09-01T04:29:16.878Z,100.00
2022-09-01T04:31:43.917Z,100.00
2022-09-01T04:34:11.930Z,100.00
2022-09-01T04:36:38.913Z,100.00
2022-09-01T04:39:06.115Z,100.00
2022-09-01T04:41:32.886Z,100.00
2022-09-01T04:44:00.494Z,100.00
2022-09-01T04:46:27.277Z,100.00
2022-09-01T04:48:54.062Z,100.00
2022-09-01T04:51:21.002Z,100.00
2022-09-01T04:53:47.789Z,100.00
2022-09-01T04:56:18.733Z,100.00
2022-09-01T04:58:49.265Z,100.00
2022-09-01T05:01:18.709Z,100.00
2022-09-01T05:03:45.862Z,100.00
2022-09-01T05:06:14.329Z,100.00
2022-09-01T05:08:41.093Z,100.00
2022-09-01T05:11:09.514Z,100.00
2022-09-01T05:13:36.221Z,100.00
2022-09-01T05:16:05.740Z,100.00
2022-09-01T05:18:32.503Z,100.00
2022-09-01T05:20:59.201Z,100.00
2022-09-01T05:23:25.854Z,100.00
2022-09-01T05:25:52.487Z,100.00
2022-09-01T05:28:19.557Z,100.00
2022-09-01T05:30:47.360Z,100.00
2022-09-01T05:33:18.638Z,100.00
2022-09-01T05:35:58.315Z,100.00
2022-09-01T05:38:25.039Z,100.00
2022-09-01T05:40:58.977Z,100.00
2022-09-01T05:43:25.641Z,100.00
2022-09-01T05:46:06.096Z,100.00
2022-09-01T05:48:33.558Z,100.00
2022-09-01T05:51:00.299Z,100.00
2022-09-01T05:53:27.385Z,100.00
2022-09-01T05:55:54.110Z,100.00
2022-09-01T05:58:20.921Z,99.93
2022-09-01T06:00:47.933Z,100.00
2022-09-01T06:03:14.697Z,99.81
2022-09-01T06:05:41.884Z,98.79
2022-09-01T06:08:08.744Z,98.83
2022-09-01T06:10:37.049Z,98.12
2022-09-01T06:13:03.736Z,97.56
2022-09-01T06:15:30.568Z,96.96
2022-09-01T06:17:57.824Z,97.17
2022-09-01T06:20:26.543Z,96.91
2022-09-01T06:22:53.611Z,95.77
2022-09-01T06:25:21.080Z,94.88
2022-09-01T06:27:48.056Z,95.06
2022-09-01T06:30:23.049Z,94.53
2022-09-01T06:32:50.684Z,93.70
2022-09-01T06:35:17.588Z,94.09
2022-09-01T06:37:44.987Z,94.46
2022-09-01T06:40:15.333Z,94.95
2022-09-01T06:42:42.137Z,94.76
2022-09-01T06:45:11.309Z,95.80
2022-09-01T06:47:38.129Z,95.10
2022-09-01T06:50:05.229Z,94.64
2022-09-01T06:53:32.038Z,95.33
2022-09-01T06:55:19.262Z,95.07
2022-09-01T07:00:34.260Z,94.65
2022-09-01T07:03:00.911Z,93.48
2022-09-01T07:08:16.015Z,93.70
2022-09-01T07:13:32.060Z,93.87
2022-09-01T07:18:58.454Z,92.03
2022-09-01T07:21:42.178Z,91.90
2022-09-01T07:24:12.121Z,91.67
2022-09-01T07:26:46.785Z,91.50
2022-09-01T07:29:14.058Z,92.04
2022-09-01T07:31:49.478Z,91.90
2022-09-01T07:38:47.477Z,90.98
2022-09-01T07:39:51.195Z,91.27
2022-09-01T07:47:54.896Z,88.86
2022-09-01T07:50:38.641Z,86.81
2022-09-01T07:53:07.361Z,86.66
2022-09-01T07:55:34.038Z,86.85
2022-09-01T07:58:00.716Z,86.64
2022-09-01T08:00:31.051Z,84.17
2022-09-01T08:02:58.380Z,80.26
2022-09-01T08:05:25.340Z,81.20
2022-09-01T08:07:52.266Z,77.30
2022-09-01T08:10:20.241Z,76.96
2022-09-01T08:12:56.228Z,74.24
2022-09-01T08:15:41.395Z,71.98
2022-09-01T08:18:10.390Z,73.87
2022-09-01T08:20:38.612Z,74.45
2022-09-01T08:23:05.729Z,76.59
2022-09-01T08:25:33.350Z,77.13
2022-09-01T08:28:00.490Z,81.21
2022-09-01T08:30:27.428Z,78.42
2022-09-01T08:32:54.619Z,74.10
2022-09-01T08:35:21.727Z,71.62
2022-09-01T08:37:48.613Z,74.81
2022-09-01T08:40:17.520Z,73.65
2022-09-01T08:42:55.806Z,74.55
2022-09-01T08:45:35.999Z,75.20
2022-09-01T08:49:18.442Z,76.39
2022-09-01T08:51:41.270Z,74.45
2022-09-01T08:54:20.099Z,72.31
2022-09-01T08:56:59.874Z,73.86
2022-09-01T08:59:26.513Z,72.85
2022-09-01T09:01:58.925Z,72.75
2022-09-01T09:04:40.422Z,71.19
2022-09-01T09:07:28.048Z,69.29
2022-09-01T09:10:18.143Z,69.22
2022-09-01T09:13:12.532Z,68.38
2022-09-01T09:15:44.373Z,67.77
2022-09-01T09:18:20.139Z,68.68
2022-09-01T09:21:19.438Z,70.44
2022-09-01T09:23:48.191Z,71.78
2022-09-01T09:26:16.682Z,73.21
2022-09-01T09:28:43.626Z,75.70
2022-09-01T09:31:37.611Z,76.27
2022-09-01T09:34:04.645Z,78.15
2022-09-01T09:36:36.007Z,76.23
2022-09-01T09:39:12.135Z,76.53
2022-09-01T09:41:40.192Z,78.46
2022-09-01T09:44:26.490Z,77.64
2022-09-01T09:46:53.296Z,78.44
2022-09-01T09:49:34.914Z,78.29
2022-09-01T09:52:03.268Z,76.03
2022-09-01T09:54:31.497Z,75.88
2022-09-01T09:57:08.646Z,75.54
2022-09-01T10:00:03.305Z,74.88
2022-09-01T10:02:33.224Z,72.59
2022-09-01T10:05:01.150Z,73.33
2022-09-01T10:07:36.967Z,74.06
2022-09-01T10:10:08.754Z,73.50
2022-09-01T10:12:35.425Z,77.09
2022-09-01T10:15:07.079Z,77.45
2022-09-01T10:17:41.229Z,77.51
2022-09-01T10:20:13.431Z,78.50
2022-09-01T10:22:40.287Z,78.93
2022-09-01T10:25:10.246Z,80.23
2022-09-01T10:27:38.852Z,81.85
2022-09-01T10:30:18.457Z,81.36
2022-09-01T10:32:55.919Z,82.16
2022-09-01T10:35:47.481Z,82.23
2022-09-01T10:38:34.349Z,82.56
2022-09-01T10:41:01.089Z,78.19
2022-09-01T10:43:36.233Z,81.23
2022-09-01T10:46:39.087Z,79.49
2022-09-01T10:49:25.739Z,79.20
2022-09-01T10:51:56.543Z,78.04
2022-09-01T10:54:40.366Z,73.20
2022-09-01T10:57:41.896Z,73.87
2022-09-01T11:00:40.042Z,70.63
2022-09-01T11:06:13.291Z,68.70
2022-09-01T11:08:50.779Z,69.53
2022-09-01T11:11:29.787Z,66.77
2022-09-01T11:13:56.959Z,62.18
2022-09-01T11:16:53.203Z,64.11
2022-09-01T11:20:04.307Z,63.70
2022-09-01T11:22:31.818Z,61.20
2022-09-01T11:25:12.026Z,63.92
2022-09-01T11:27:48.450Z,61.63
2022-09-01T11:30:31.269Z,60.39
2022-09-01T11:33:02.622Z,60.63
2022-09-01T11:35:29.453Z,59.71
2022-09-01T11:37:57.256Z,61.61
2022-09-01T11:40:29.760Z,61.75
2022-09-01T11:43:00.675Z,60.93
2022-09-01T11:45:29.197Z,61.62
2022-09-01T11:47:57.955Z,62.70
2022-09-01T11:50:27.397Z,64.43
2022-09-01T11:53:04.880Z,62.00
2022-09-01T11:55:35.978Z,56.86
2022-09-01T11:58:02.847Z,58.61
2022-09-01T12:00:33.026Z,55.94
2022-09-01T12:02:59.850Z,55.31
2022-09-01T12:05:31.836Z,57.49
2022-09-01T12:07:58.649Z,58.57
2022-09-01T12:10:37.744Z,57.78
2022-09-01T12:13:09.581Z,58.34
2022-09-01T12:15:40.980Z,59.69
2022-09-01T12:18:20.121Z,60.61
2022-09-01T12:23:20.149Z,62.64
2022-09-01T12:25:46.830Z,66.25
2022-09-01T12:28:13.571Z,67.46
2022-09-01T12:30:43.561Z,70.76
2022-09-01T12:33:26.740Z,66.84
2022-09-01T12:35:58.784Z,66.95
2022-09-01T12:38:28.526Z,64.68
2022-09-01T12:40:56.356Z,58.71
2022-09-01T12:43:31.457Z,64.90
2022-09-01T12:45:58.115Z,62.95
2022-09-01T12:48:30.255Z,63.74
2022-09-01T12:50:58.701Z,64.25
2022-09-01T12:53:26.687Z,66.41
2022-09-01T12:56:18.152Z,70.71
2022-09-01T12:58:47.466Z,71.19
2022-09-01T13:01:28.556Z,69.84
2022-09-01T13:04:21.109Z,72.24
2022-09-01T13:06:48.646Z,73.11
2022-09-01T13:09:15.518Z,74.09
2022-09-01T13:14:29.034Z,74.55
2022-09-01T13:16:55.810Z,72.12
2022-09-01T13:19:27.969Z,72.64
2022-09-01T13:21:56.758Z,70.03
2022-09-01T13:24:26.568Z,71.48
2022-09-01T13:29:43.477Z,70.59
2022-09-01T13:32:19.153Z,69.00
2022-09-01T13:34:47.278Z,65.46
2022-09-01T13:37:14.018Z,68.83
2022-09-01T13:39:40.644Z,63.93
2022-09-01T13:42:07.342Z,64.02
2022-09-01T13:44:35.396Z,60.72
2022-09-01T13:52:35.427Z,59.64
2022-09-01T13:55:02.174Z,53.30
2022-09-01T13:57:35.587Z,53.30
2022-09-01T14:00:05.242Z,56.02
2022-09-01T14:02:32.781Z,56.65
2022-09-01T14:04:59.550Z,59.53
2022-09-01T14:07:26.154Z,58.53
2022-09-01T14:09:52.849Z,57.21
2022-09-01T14:12:19.555Z,60.75
2022-09-01T14:17:33.327Z,57.96
2022-09-01T14:20:00.201Z,56.79
2022-09-01T14:22:26.858Z,60.01
2022-09-01T14:24:53.940Z,61.46
2022-09-01T14:27:20.617Z,61.98
2022-09-01T14:29:51.009Z,60.83
2022-09-01T14:32:21.998Z,61.88
2022-09-01T14:34:48.887Z,58.27
2022-09-01T14:37:15.734Z,60.04
2022-09-01T14:39:42.382Z,59.99
2022-09-01T14:42:09.313Z,59.85
2022-09-01T14:44:36.955Z,62.40
2022-09-01T14:47:04.190Z,62.66
2022-09-01T14:49:34.453Z,61.78
2022-09-01T14:52:12.070Z,67.41
2022-09-01T14:54:40.703Z,68.58
2022-09-01T14:59:53.898Z,72.51
2022-09-01T15:02:20.612Z,69.40
2022-09-01T15:04:47.273Z,69.60
2022-09-01T15:07:13.980Z,70.18
2022-09-01T15:09:40.716Z,68.58
2022-09-01T15:12:07.564Z,72.71
2022-09-01T15:14:34.230Z,69.76
2022-09-01T15:17:00.946Z,73.01
2022-09-01T15:19:27.589Z,72.75
2022-09-01T15:21:54.293Z,72.17
2022-09-01T15:24:21.317Z,71.96
2022-09-01T15:26:48.024Z,71.94
2022-09-01T15:29:14.680Z,73.43
2022-09-01T15:31:42.468Z,72.89
2022-09-01T15:34:09.276Z,72.46
2022-09-01T15:36:37.715Z,71.67
2022-09-01T15:39:04.574Z,71.94
2022-09-01T15:41:31.832Z,74.33
2022-09-01T15:43:58.525Z,72.54
2022-09-01T15:46:25.355Z,73.97
2022-09-01T15:48:52.160Z,76.23
2022-09-01T15:51:22.466Z,73.38
2022-09-01T15:53:51.091Z,77.25
2022-09-01T15:56:17.932Z,74.91
2022-09-01T15:59:01.132Z,74.96
2022-09-01T16:01:32.094Z,72.78
2022-09-01T16:03:59.764Z,71.03
2022-09-01T16:06:26.727Z,71.30
2022-09-01T16:08:53.613Z,72.38
2022-09-01T16:11:23.393Z,75.28
2022-09-01T16:13:50.394Z,72.60
2022-09-01T16:16:41.133Z,71.60
2022-09-01T16:19:20.179Z,71.56
2022-09-01T16:22:01.771Z,73.33
2022-09-01T16:24:28.547Z,71.04
2022-09-01T16:26:55.198Z,68.55
2022-09-01T16:29:34.910Z,69.50
2022-09-01T16:32:01.803Z,66.99
2022-09-01T16:34:28.725Z,67.83
2022-09-01T16:37:08.717Z,68.65
2022-09-01T16:39:44.638Z,68.63
2022-09-01T16:42:41.244Z,69.38
2022-09-01T16:45:39.648Z,68.71
2022-09-01T16:48:19.362Z,71.86
2022-09-01T16:51:04.721Z,70.54
2022-09-01T16:53:38.917Z,74.84
2022-09-01T16:56:06.796Z,74.58
2022-09-01T16:58:40.447Z,75.28
2022-09-01T17:01:13.630Z,76.67
2022-09-01T17:04:00.569Z,76.74
2022-09-01T17:06:32.324Z,76.93
2022-09-01T17:09:09.573Z,75.37
2022-09-01T17:12:02.390Z,74.95
2022-09-01T17:14:51.962Z,74.46
2022-09-01T17:17:21.103Z,76.68
2022-09-01T17:19:48.079Z,75.78
2022-09-01T17:22:14.736Z,76.97
2022-09-01T17:24:43.658Z,77.50
2022-09-01T17:27:33.029Z,79.25
2022-09-01T17:29:59.976Z,78.03
2022-09-01T17:32:38.681Z,80.02
2022-09-01T17:35:34.321Z,78.82
2022-09-01T17:38:38.107Z,79.66
2022-09-01T17:41:25.757Z,79.94
2022-09-01T17:44:23.356Z,77.67
2022-09-01T17:47:01.725Z,75.93
2022-09-01T17:49:42.976Z,75.94
2022-09-01T17:52:17.781Z,76.70
2022-09-01T17:55:12.871Z,76.17
2022-09-01T17:57:43.941Z,72.25
2022-09-01T18:00:16.531Z,72.83
2022-09-01T18:02:47.440Z,74.86
2022-09-01T18:05:24.571Z,75.06
2022-09-01T18:08:25.741Z,75.13
2022-09-01T18:10:57.742Z,74.57
2022-09-01T18:13:52.484Z,77.54
2022-09-01T18:16:22.215Z,76.45
2022-09-01T18:18:49.656Z,75.99
2022-09-01T18:21:29.484Z,73.64
2022-09-01T18:24:02.016Z,75.78
2022-09-01T18:26:31.162Z,77.52
2022-09-01T18:28:58.752Z,76.44
2022-09-01T18:31:28.277Z,74.28
2022-09-01T18:34:01.591Z,74.23
2022-09-01T18:36:31.265Z,75.01
2022-09-01T18:39:25.087Z,75.90
2022-09-01T18:42:06.961Z,74.09
2022-09-01T18:44:59.660Z,75.61
2022-09-01T18:47:35.119Z,75.94
2022-09-01T18:50:12.455Z,75.82
2022-09-01T18:52:38.994Z,75.36
2022-09-01T18:55:21.205Z,76.31
2022-09-01T18:57:54.919Z,76.36
2022-09-01T19:00:30.679Z,77.66
2022-09-01T19:03:09.206Z,78.12
2022-09-01T19:05:57.657Z,78.40
2022-09-01T19:08:36.380Z,78.36
2022-09-01T19:11:40.664Z,78.97
2022-09-01T19:14:22.445Z,77.88
2022-09-01T19:16:59.160Z,76.06
2022-09-01T19:19:34.823Z,77.68
2022-09-01T19:22:01.472Z,74.95
2022-09-01T19:24:47.541Z,76.25
2022-09-01T19:27:21.450Z,75.65
2022-09-01T19:29:57.427Z,76.55
2022-09-01T19:32:25.943Z,78.09
2022-09-01T19:34:57.309Z,79.40
2022-09-01T19:37:24.210Z,72.22
2022-09-01T19:39:54.256Z,75.61
2022-09-01T19:42:24.241Z,77.76
2022-09-01T19:44:59.691Z,71.60
2022-09-01T19:47:41.247Z,76.76
2022-09-01T19:50:24.569Z,78.49
2022-09-01T19:52:55.475Z,79.72
2022-09-01T19:55:35.627Z,78.80
2022-09-01T19:58:41.154Z,79.44
2022-09-01T20:01:12.136Z,78.95
2022-09-01T20:03:43.855Z,78.17
2022-09-01T20:06:37.565Z,79.60
2022-09-01T20:09:15.683Z,80.62
2022-09-01T20:12:00.640Z,80.14
2022-09-01T20:14:34.911Z,79.87
2022-09-01T20:17:03.911Z,79.71
2022-09-01T20:19:42.594Z,80.67
2022-09-01T20:22:42.657Z,81.24
2022-09-01T20:25:17.831Z,75.77
2022-09-01T20:27:50.391Z,75.49
2022-09-01T20:30:20.419Z,77.10
2022-09-01T20:33:09.190Z,77.13
2022-09-01T20:35:57.653Z,79.31
2022-09-01T20:38:27.498Z,80.62
2022-09-01T20:40:54.208Z,80.57
2022-09-01T20:43:24.093Z,80.87
2022-09-01T20:45:50.857Z,82.17
2022-09-01T20:48:23.673Z,79.54
2022-09-01T20:50:56.301Z,78.19
2022-09-01T20:54:01.833Z,79.34
2022-09-01T20:56:49.455Z,80.31
2022-09-01T20:59:40.972Z,80.66
2022-09-01T21:02:26.291Z,81.22
2022-09-01T21:05:38.311Z,82.11
2022-09-01T21:08:26.172Z,82.29
2022-09-01T21:10:58.796Z,83.42
2022-09-01T21:13:49.672Z,83.84
2022-09-01T21:16:28.714Z,84.10
2022-09-01T21:19:28.868Z,84.35
2022-09-01T21:22:04.393Z,84.98
2022-09-01T21:24:31.855Z,85.00
2022-09-01T21:26:59.027Z,85.05
2022-09-01T21:30:08.140Z,85.06
2022-09-01T21:32:35.229Z,85.67
2022-09-01T21:35:02.191Z,86.07
2022-09-01T21:37:29.016Z,86.03
2022-09-01T21:39:55.997Z,86.65
2022-09-01T21:42:31.667Z,85.85
2022-09-01T21:44:58.381Z,86.63
2022-09-01T21:47:25.816Z,86.61
2022-09-01T21:49:52.473Z,87.19
2022-09-01T21:52:19.194Z,87.17
2022-09-01T21:54:46.292Z,87.46
2022-09-01T21:57:12.963Z,87.35
2022-09-01T21:59:39.668Z,87.74
2022-09-01T22:02:06.612Z,86.95
2022-09-01T22:04:36.428Z,87.76
2022-09-01T22:07:04.246Z,87.72
2022-09-01T22:09:30.873Z,88.27
2022-09-01T22:11:57.635Z,88.26
2022-09-01T22:14:24.623Z,87.73
2022-09-01T22:16:51.398Z,87.99
2022-09-01T22:19:18.117Z,87.99
2022-09-01T22:21:46.964Z,87.70
2022-09-01T22:24:13.576Z,88.09
2022-09-01T22:26:46.492Z,87.82
2022-09-01T22:29:13.400Z,88.48
2022-09-01T22:31:40.157Z,88.52
2022-09-01T22:34:07.099Z,88.42
2022-09-01T22:36:39.911Z,88.79
2022-09-01T22:39:07.783Z,89.10
2022-09-01T22:41:34.869Z,88.25
2022-09-01T22:44:01.786Z,88.88
2022-09-01T22:46:28.618Z,88.80
2022-09-01T22:48:56.080Z,89.18
2022-09-01T22:51:22.921Z,89.70
2022-09-01T22:53:49.681Z,88.67
2022-09-01T22:56:19.537Z,88.65
2022-09-01T22:58:47.108Z,89.03
2022-09-01T23:01:15.468Z,89.55
2022-09-01T23:03:42.981Z,90.36
2022-09-01T23:06:41.348Z,89.07
2022-09-01T23:09:08.393Z,89.27
2022-09-01T23:11:35.026Z,89.98
2022-09-01T23:14:01.693Z,89.46
2022-09-01T23:16:28.348Z,90.21
2022-09-01T23:18:55.223Z,89.54
2022-09-01T23:21:27.925Z,90.16
2022-09-01T23:23:58.588Z,89.16
2022-09-01T23:26:26.649Z,90.54
2022-09-01T23:28:53.354Z,90.17
2022-09-01T23:31:22.405Z,91.07
2022-09-01T23:33:49.198Z,90.65
2022-09-01T23:36:16.962Z,90.87
2022-09-01T23:38:43.652Z,91.07
2022-09-01T23:41:12.077Z,90.67
2022-09-01T23:43:38.830Z,90.95
2022-09-01T23:46:05.791Z,90.61
2022-09-01T23:48:32.701Z,90.70
2022-09-01T23:51:01.312Z,90.62
2022-09-01T23:53:29.744Z,90.77
2022-09-01T23:55:58.937Z,90.20
2022-09-01T23:58:25.928Z,90.42
